createdAt,value
2022-10-19T00:03:10.244Z,7.2
2022-10-19T00:13:11.037Z,7.1
2022-10-19T00:43:12.105Z,6.5
2022-10-19T01:03:13.035Z,6.3
2022-10-19T01:13:13.198Z,6.3
2022-10-19T01:33:14.054Z,6
2022-10-19T01:53:15.431Z,6
2022-10-19T02:23:17.248Z,5.8
2022-10-19T02:33:17.306Z,5.7
2022-10-19T02:53:19.170Z,5.6
2022-10-19T03:03:20.159Z,5.7
2022-10-19T03:13:20.209Z,5.8
2022-10-19T03:23:20.979Z,5.7
2022-10-19T03:33:21.761Z,5.6
2022-10-19T03:43:22.656Z,5.6
2022-10-19T04:13:24.451Z,6.3
2022-10-19T04:23:25.174Z,6.5
2022-10-19T04:33:25.336Z,6.2
2022-10-19T04:43:25.609Z,6.5
2022-10-19T04:53:26.032Z,6.6
2022-10-19T05:13:26.628Z,5.8
2022-10-19T05:23:26.837Z,5.7
2022-10-19T05:33:27.140Z,5.8
2022-10-19T05:43:28.131Z,5.8
2022-10-19T05:53:28.856Z,5.5
2022-10-19T06:03:29.640Z,5.5
2022-10-19T06:13:30.631Z,5.5
2022-10-19T06:33:32.189Z,5.5
2022-10-19T06:43:32.439Z,5.4
2022-10-19T07:03:33.977Z,5.7
2022-10-19T07:13:34.646Z,5.9
2022-10-19T07:33:36.123Z,6.3
2022-10-19T07:43:36.993Z,6.6
2022-10-19T08:13:39.039Z,8.5
2022-10-19T08:33:40.661Z,9.5
2022-10-19T09:14:00.398Z,10.9
2022-10-19T09:23:43.445Z,11.2
2022-10-19T10:13:46.696Z,12.6
2022-10-19T10:23:47.524Z,13.3
2022-10-19T10:33:48.426Z,13.1
2022-10-19T10:43:49.140Z,13.8
2022-10-19T11:13:51.368Z,14
2022-10-19T12:23:55.016Z,14.4
2022-10-19T12:33:55.919Z,14.7
2022-10-19T13:13:59.050Z,15
2022-10-19T13:23:59.470Z,14.9
2022-10-19T13:33:59.549Z,14.9
2022-10-19T13:44:00.204Z,14.9
2022-10-19T13:54:06.053Z,14.9
2022-10-19T14:04:06.407Z,14.7
2022-10-19T14:14:07.357Z,14.7
2022-10-19T14:24:07.438Z,14.2
2022-10-19T14:34:07.596Z,14.3
2022-10-19T14:44:08.282Z,14
2022-10-19T14:54:08.933Z,14
2022-10-19T15:14:10.191Z,13.7
2022-10-19T15:24:11.081Z,13.4
2022-10-19T15:34:11.873Z,13.2
2022-10-19T15:44:12.408Z,13
2022-10-19T16:04:14.217Z,12.5
2022-10-19T16:14:14.441Z,12.3
2022-10-19T16:24:14.943Z,12.1
2022-10-19T16:34:15.085Z,11.9
2022-10-19T16:44:15.387Z,11.7
2022-10-19T16:54:16.112Z,11.5
2022-10-19T17:04:16.521Z,11.3
2022-10-19T17:14:16.784Z,11.1
2022-10-19T17:24:18.636Z,11
2022-10-19T17:34:17.138Z,10.8
2022-10-19T17:44:17.620Z,10.7
2022-10-19T17:54:18.225Z,10.5
2022-10-19T18:04:18.881Z,10.4
2022-10-19T18:14:19.780Z,10.3
2022-10-19T18:24:20.438Z,10.2
2022-10-19T18:34:21.355Z,10.1
2022-10-19T18:44:25.125Z,9.9
2022-10-19T18:54:23.251Z,9.7
2022-10-19T19:04:23.777Z,9.6
2022-10-19T19:14:23.910Z,9.4
2022-10-19T19:24:24.741Z,9.3
2022-10-19T19:34:24.978Z,9
2022-10-19T19:44:26.003Z,8.8
2022-10-19T19:54:26.398Z,8.7
2022-10-19T20:04:26.867Z,8.6
2022-10-19T20:14:27.385Z,8.5
2022-10-19T20:24:27.652Z,8.4
2022-10-19T20:34:28.183Z,8.3
2022-10-19T20:44:28.887Z,8.1
2022-10-19T21:04:29.235Z,7.7
2022-10-19T21:24:30.314Z,7.6
2022-10-19T21:34:31.192Z,7.5
2022-10-19T21:44:31.939Z,7.4
2022-10-19T21:54:32.612Z,7.4
2022-10-19T22:14:33.537Z,7.2
2022-10-19T22:24:33.817Z,7
2022-10-19T22:34:34.188Z,7
2022-10-19T22:54:35.733Z,6.9
2022-10-19T23:04:36.394Z,7.1
2022-10-19T23:14:37.319Z,7.1
2022-10-19T23:24:37.751Z,7
2022-10-19T23:34:38.080Z,6.8
2022-10-19T23:44:38.273Z,6.6
2022-10-19T23:54:39.197Z,6.6
